createdAt,value
2019-01-16T00:01:14.496Z,37.20
2019-01-16T00:04:12.044Z,36.90
2019-01-16T00:06:58.792Z,36.70
2019-01-16T00:09:52.940Z,36.60
2019-01-16T00:12:46.021Z,36.70
2019-01-16T00:15:49.424Z,36.50
2019-01-16T00:18:33.256Z,36.70
2019-01-16T00:21:21.212Z,36.40
2019-01-16T00:24:11.944Z,36.50
2019-01-16T00:27:05.915Z,36.40
2019-01-16T00:30:02.864Z,36.00
2019-01-16T00:32:49.392Z,35.90
2019-01-16T00:35:36.776Z,36.00
2019-01-16T00:38:37.092Z,35.50
2019-01-16T00:41:19.972Z,35.70
2019-01-16T00:44:06.856Z,34.90
2019-01-16T00:47:13.236Z,34.80
2019-01-16T00:50:07.140Z,34.40
2019-01-16T00:52:52.482Z,34.30
2019-01-16T00:55:50.291Z,34.30
2019-01-16T00:58:38.336Z,34.40
2019-01-16T01:01:25.367Z,35.40
2019-01-16T01:04:12.356Z,34.30
2019-01-16T01:06:57.289Z,34.30
2019-01-16T01:09:41.905Z,35.00
2019-01-16T01:12:29.796Z,34.20
2019-01-16T01:15:32.828Z,34.40
2019-01-16T01:18:17.777Z,34.30
2019-01-16T01:21:14.756Z,34.30
2019-01-16T01:24:09.084Z,34.40
2019-01-16T01:26:47.088Z,34.30
2019-01-16T01:29:37.852Z,34.90
2019-01-16T01:32:24.492Z,34.70
2019-01-16T01:35:18.759Z,34.40
2019-01-16T01:38:20.364Z,34.30
2019-01-16T01:41:05.643Z,34.70
2019-01-16T01:43:40.792Z,34.20
2019-01-16T01:46:27.801Z,34.20
2019-01-16T01:49:15.420Z,34.20
2019-01-16T01:52:02.108Z,34.20
2019-01-16T01:54:46.844Z,34.70
2019-01-16T01:57:28.101Z,34.10
2019-01-16T02:00:15.012Z,34.10
2019-01-16T02:03:15.184Z,33.90
2019-01-16T02:06:01.308Z,34.00
2019-01-16T02:08:40.553Z,33.00
2019-01-16T02:11:25.172Z,33.20
2019-01-16T02:14:13.060Z,32.70
2019-01-16T02:16:59.953Z,32.60
2019-01-16T02:19:57.307Z,32.50
2019-01-16T02:22:42.296Z,31.90
2019-01-16T02:25:29.300Z,32.10
2019-01-16T02:28:07.980Z,30.30
2019-01-16T02:30:55.857Z,31.10
2019-01-16T02:33:42.228Z,30.90
2019-01-16T02:36:29.028Z,31.30
2019-01-16T02:39:10.316Z,30.60
2019-01-16T02:41:57.226Z,29.70
2019-01-16T02:44:51.471Z,29.70
2019-01-16T02:47:45.331Z,28.10
2019-01-16T02:50:27.705Z,28.10
2019-01-16T02:53:21.028Z,28.20
2019-01-16T02:56:01.929Z,28.00
2019-01-16T02:58:43.595Z,28.20
2019-01-16T03:01:37.453Z,27.20
2019-01-16T03:04:17.224Z,27.10
2019-01-16T03:07:05.098Z,27.20
2019-01-16T03:09:44.488Z,27.70
2019-01-16T03:12:28.480Z,27.90
2019-01-16T03:15:15.576Z,28.00
2019-01-16T03:17:59.445Z,27.90
2019-01-16T03:20:46.024Z,27.80
2019-01-16T03:23:34.096Z,26.80
2019-01-16T03:26:13.492Z,27.10
2019-01-16T03:29:00.136Z,27.10
2019-01-16T03:32:06.297Z,26.40
2019-01-16T03:34:48.553Z,26.20
2019-01-16T03:37:42.900Z,26.40
2019-01-16T03:40:30.272Z,26.70
2019-01-16T03:43:12.961Z,27.10
2019-01-16T03:45:51.404Z,27.40
2019-01-16T03:48:38.055Z,27.80
2019-01-16T03:51:25.076Z,27.20
2019-01-16T03:54:17.241Z,26.60
2019-01-16T03:57:01.757Z,26.40
2019-01-16T03:59:49.815Z,26.40
2019-01-16T04:02:40.664Z,26.10
2019-01-16T04:05:31.820Z,26.10
2019-01-16T04:08:18.633Z,26.10
2019-01-16T04:11:05.600Z,26.70
2019-01-16T04:14:02.694Z,26.50
2019-01-16T04:16:50.680Z,26.10
2019-01-16T04:19:31.624Z,26.10
2019-01-16T04:22:24.313Z,25.70
2019-01-16T04:25:15.071Z,24.80
2019-01-16T04:28:01.957Z,25.00
2019-01-16T04:30:48.812Z,25.10
2019-01-16T04:33:31.100Z,25.10
2019-01-16T04:36:21.824Z,25.00
2019-01-16T04:39:08.707Z,24.90
2019-01-16T04:41:45.620Z,25.40
2019-01-16T04:44:32.512Z,26.10
2019-01-16T04:47:20.573Z,26.40
2019-01-16T04:50:07.364Z,26.80
2019-01-16T04:53:02.929Z,26.50
2019-01-16T04:55:48.159Z,26.50
2019-01-16T04:58:45.401Z,26.40
2019-01-16T05:01:32.040Z,26.00
2019-01-16T05:04:23.100Z,26.10
2019-01-16T05:07:12.816Z,26.10
2019-01-16T05:10:00.882Z,26.10
2019-01-16T05:12:47.637Z,26.40
2019-01-16T05:15:38.564Z,26.00
2019-01-16T05:18:33.776Z,26.60
2019-01-16T05:21:25.092Z,26.70
2019-01-16T05:24:28.112Z,26.80
2019-01-16T05:27:22.974Z,26.60
2019-01-16T05:30:02.237Z,25.90
2019-01-16T05:33:05.485Z,26.10
2019-01-16T05:35:52.091Z,26.20
2019-01-16T05:38:43.100Z,26.90
2019-01-16T05:41:50.264Z,26.20
2019-01-16T05:44:50.230Z,25.90
2019-01-16T05:47:38.290Z,25.90
2019-01-16T05:50:27.842Z,25.90
2019-01-16T05:53:12.901Z,25.90
2019-01-16T05:56:03.696Z,26.20
2019-01-16T05:58:51.684Z,26.40
2019-01-16T06:01:46.195Z,25.90
2019-01-16T06:04:43.165Z,25.90
2019-01-16T06:07:43.168Z,26.40
2019-01-16T06:10:30.645Z,25.90
2019-01-16T06:13:21.497Z,26.10
2019-01-16T06:15:56.884Z,26.30
2019-01-16T06:18:40.716Z,25.90
2019-01-16T06:21:32.034Z,26.60
2019-01-16T06:24:25.980Z,26.50
2019-01-16T06:27:12.562Z,26.40
2019-01-16T06:29:55.425Z,26.20
2019-01-16T06:32:58.697Z,26.60
2019-01-16T06:35:46.691Z,27.00
2019-01-16T06:38:44.932Z,27.00
2019-01-16T06:41:35.941Z,26.70
2019-01-16T06:44:14.069Z,27.10
2019-01-16T06:46:51.938Z,26.60
2019-01-16T06:49:42.673Z,26.70
2019-01-16T06:52:29.308Z,26.90
2019-01-16T06:55:16.317Z,27.20
2019-01-16T06:58:19.556Z,27.20
2019-01-16T07:01:05.860Z,27.10
2019-01-16T07:03:48.676Z,27.10
2019-01-16T07:06:35.298Z,27.60
2019-01-16T07:09:16.768Z,27.20
2019-01-16T07:11:57.943Z,27.40
2019-01-16T07:14:40.271Z,27.00
2019-01-16T07:17:27.519Z,27.10
2019-01-16T07:20:14.168Z,26.90
2019-01-16T07:22:53.810Z,26.80
2019-01-16T07:25:40.464Z,27.50
2019-01-16T07:28:22.992Z,27.30
2019-01-16T07:31:23.244Z,26.50
2019-01-16T07:34:29.433Z,27.10
2019-01-16T07:37:16.069Z,26.80
2019-01-16T07:39:55.073Z,27.30
2019-01-16T07:42:38.314Z,27.00
2019-01-16T07:45:40.006Z,27.10
2019-01-16T07:48:30.811Z,27.50
2019-01-16T07:51:32.524Z,27.70
2019-01-16T07:54:24.280Z,27.60
2019-01-16T07:57:02.334Z,27.40
2019-01-16T07:59:51.907Z,27.40
2019-01-16T08:02:43.114Z,27.30
2019-01-16T08:05:31.196Z,27.00
2019-01-16T08:08:13.064Z,27.50
2019-01-16T08:10:57.116Z,27.40
2019-01-16T08:13:50.375Z,28.00
2019-01-16T08:16:36.859Z,28.00
2019-01-16T08:19:26.136Z,27.70
2019-01-16T08:22:29.416Z,28.20
2019-01-16T08:25:26.636Z,27.70
2019-01-16T08:28:17.400Z,27.40
2019-01-16T08:31:04.248Z,28.10
2019-01-16T08:34:01.368Z,27.60
2019-01-16T08:36:47.917Z,27.80
2019-01-16T08:39:35.372Z,27.90
2019-01-16T08:42:19.633Z,28.70
2019-01-16T08:45:14.637Z,29.30
2019-01-16T08:48:03.169Z,29.60
2019-01-16T08:51:00.229Z,30.10
2019-01-16T08:53:47.743Z,31.60
2019-01-16T08:56:29.169Z,32.00
2019-01-16T08:59:13.820Z,31.90
2019-01-16T09:01:58.684Z,32.80
2019-01-16T09:04:49.767Z,33.20
2019-01-16T09:07:46.776Z,33.50
2019-01-16T09:10:31.794Z,33.50
2019-01-16T09:13:18.736Z,34.20
2019-01-16T09:16:06.692Z,34.30
2019-01-16T09:18:53.216Z,35.40
2019-01-16T09:21:40.088Z,35.10
2019-01-16T09:24:18.684Z,34.90
2019-01-16T09:27:12.950Z,35.00
2019-01-16T09:29:58.636Z,35.10
2019-01-16T09:32:49.368Z,35.80
2019-01-16T09:35:43.220Z,35.70
2019-01-16T09:38:41.512Z,36.00
2019-01-16T09:41:44.612Z,35.50
2019-01-16T09:44:35.884Z,35.90
2019-01-16T09:47:28.802Z,36.90
2019-01-16T09:50:06.045Z,34.60
2019-01-16T09:53:02.380Z,35.00
2019-01-16T09:55:52.668Z,33.90
2019-01-16T09:58:56.257Z,33.40
2019-01-16T10:01:59.332Z,32.00
2019-01-16T10:04:45.860Z,31.30
2019-01-16T10:07:36.896Z,32.50
2019-01-16T10:10:26.104Z,32.20
2019-01-16T10:13:14.096Z,31.40
2019-01-16T10:16:02.648Z,31.50
2019-01-16T10:18:59.960Z,29.90
2019-01-16T10:21:42.301Z,30.50
2019-01-16T10:24:39.337Z,31.00
2019-01-16T10:27:29.236Z,30.00
2019-01-16T10:30:16.081Z,29.50
2019-01-16T10:32:58.335Z,28.50
2019-01-16T10:35:45.212Z,28.30
2019-01-16T10:38:33.488Z,27.90
2019-01-16T10:41:21.445Z,28.80
2019-01-16T10:44:18.744Z,28.40
2019-01-16T10:47:05.941Z,28.70
2019-01-16T10:50:06.188Z,28.30
2019-01-16T10:53:02.152Z,28.30
2019-01-16T10:55:47.635Z,27.30
2019-01-16T10:58:34.500Z,26.40
2019-01-16T11:01:21.577Z,26.40
2019-01-16T11:04:08.444Z,26.60
2019-01-16T11:06:56.484Z,25.50
2019-01-16T11:09:32.775Z,25.50
2019-01-16T11:12:16.516Z,25.10
2019-01-16T11:15:03.048Z,24.80
2019-01-16T11:17:51.037Z,25.10
2019-01-16T11:20:35.504Z,24.30
2019-01-16T11:23:24.341Z,24.70
2019-01-16T11:26:07.940Z,24.70
2019-01-16T11:28:54.717Z,24.80
2019-01-16T11:31:48.729Z,24.60
2019-01-16T11:34:30.171Z,24.00
2019-01-16T11:37:16.851Z,24.10
2019-01-16T11:39:55.495Z,24.80
2019-01-16T11:42:58.497Z,25.40
2019-01-16T11:45:48.072Z,23.50
2019-01-16T11:48:39.127Z,23.80
2019-01-16T11:51:24.040Z,23.40
2019-01-16T11:54:21.316Z,24.40
2019-01-16T11:57:15.137Z,24.50
2019-01-16T12:00:12.184Z,24.40
2019-01-16T12:03:03.740Z,24.30
2019-01-16T12:05:44.116Z,24.60
2019-01-16T12:08:26.802Z,24.20
2019-01-16T12:11:16.240Z,23.90
2019-01-16T12:14:11.392Z,24.50
2019-01-16T12:16:58.385Z,24.10
2019-01-16T12:20:04.792Z,25.50
2019-01-16T12:22:52.125Z,24.70
2019-01-16T12:25:26.932Z,25.50
2019-01-16T12:28:13.779Z,24.20
2019-01-16T12:30:49.481Z,24.30
2019-01-16T12:33:43.529Z,25.90
2019-01-16T12:36:23.710Z,24.80
2019-01-16T12:39:18.933Z,25.00
2019-01-16T12:42:05.588Z,25.00
2019-01-16T12:44:52.393Z,25.00
2019-01-16T12:47:43.517Z,24.90
2019-01-16T12:50:42.135Z,25.40
2019-01-16T12:53:25.257Z,25.50
2019-01-16T12:56:09.221Z,26.80
2019-01-16T12:58:57.707Z,25.40
2019-01-16T13:01:51.600Z,25.80
2019-01-16T13:04:45.179Z,26.40
2019-01-16T13:07:42.097Z,26.10
2019-01-16T13:10:29.826Z,26.00
2019-01-16T13:13:11.664Z,26.10
2019-01-16T13:15:58.352Z,25.20
2019-01-16T13:18:52.335Z,26.00
2019-01-16T13:21:29.417Z,26.00
2019-01-16T13:24:09.877Z,26.10
2019-01-16T13:27:04.147Z,26.70
2019-01-16T13:29:43.868Z,26.70
2019-01-16T13:32:32.242Z,26.70
2019-01-16T13:35:18.948Z,25.50
2019-01-16T13:38:07.372Z,26.40
2019-01-16T13:40:44.650Z,26.60
2019-01-16T13:43:35.603Z,26.80
2019-01-16T13:46:23.736Z,27.10
2019-01-16T13:49:07.643Z,26.70
2019-01-16T13:51:46.429Z,26.40
2019-01-16T13:54:43.233Z,25.90
2019-01-16T13:57:30.534Z,26.80
2019-01-16T14:00:11.611Z,26.50
2019-01-16T14:02:50.288Z,26.70
2019-01-16T14:05:28.649Z,27.00
2019-01-16T14:08:11.724Z,26.30
2019-01-16T14:11:03.104Z,26.50
2019-01-16T14:13:43.812Z,26.70
2019-01-16T14:16:30.959Z,26.80
2019-01-16T14:19:13.339Z,26.80
2019-01-16T14:22:01.435Z,26.60
2019-01-16T14:25:04.695Z,26.80
2019-01-16T14:27:51.796Z,26.80
2019-01-16T14:30:42.181Z,27.30
2019-01-16T14:33:27.924Z,28.00
2019-01-16T14:36:14.808Z,28.00
2019-01-16T14:39:15.112Z,28.40
2019-01-16T14:41:53.577Z,27.10
2019-01-16T14:44:40.916Z,26.40
2019-01-16T14:47:47.641Z,26.40
2019-01-16T14:50:28.471Z,26.40
2019-01-16T14:53:19.397Z,27.10
2019-01-16T14:56:16.931Z,26.70
2019-01-16T14:59:05.004Z,27.10
2019-01-16T15:02:01.636Z,27.10
2019-01-16T15:05:01.697Z,26.50
2019-01-16T15:07:53.072Z,26.70
2019-01-16T15:10:35.380Z,26.40
2019-01-16T15:13:23.662Z,26.30
2019-01-16T15:16:17.771Z,27.20
2019-01-16T15:19:23.996Z,27.00
2019-01-16T15:22:10.696Z,26.90
2019-01-16T15:24:50.206Z,27.40
2019-01-16T15:27:44.222Z,27.10
2019-01-16T15:30:42.429Z,27.00
2019-01-16T15:33:45.869Z,26.80
2019-01-16T15:36:46.251Z,26.80
2019-01-16T15:39:37.596Z,26.60
2019-01-16T15:42:24.504Z,27.00
2019-01-16T15:45:24.574Z,27.20
2019-01-16T15:48:18.600Z,26.90
2019-01-16T15:51:09.281Z,27.50
2019-01-16T15:53:48.653Z,27.90
2019-01-16T15:56:35.490Z,28.00
2019-01-16T15:59:16.501Z,28.40
2019-01-16T16:02:03.688Z,28.30
2019-01-16T16:05:00.528Z,28.70
2019-01-16T16:07:51.900Z,28.60
2019-01-16T16:10:38.376Z,28.80
2019-01-16T16:13:18.778Z,28.70
2019-01-16T16:16:01.584Z,29.10
2019-01-16T16:18:48.364Z,29.00
2019-01-16T16:21:41.773Z,29.10
2019-01-16T16:24:35.917Z,29.30
2019-01-16T16:27:16.940Z,29.50
2019-01-16T16:30:02.091Z,29.60
2019-01-16T16:32:53.135Z,29.90
2019-01-16T16:35:32.636Z,29.90
2019-01-16T16:38:19.586Z,30.20
2019-01-16T16:41:14.476Z,30.30
2019-01-16T16:44:04.639Z,30.30
2019-01-16T16:46:53.580Z,30.50
2019-01-16T16:49:41.661Z,30.50
2019-01-16T16:52:26.097Z,30.90
2019-01-16T16:55:20.420Z,31.40
2019-01-16T16:58:07.371Z,31.80
2019-01-16T17:00:45.903Z,31.90
2019-01-16T17:03:40.195Z,32.00
2019-01-16T17:06:34.626Z,32.00
2019-01-16T17:09:18.935Z,32.00
2019-01-16T17:12:05.607Z,32.40
2019-01-16T17:14:52.464Z,32.50
2019-01-16T17:17:40.505Z,32.80
2019-01-16T17:20:19.023Z,33.10
2019-01-16T17:23:19.429Z,33.40
2019-01-16T17:26:18.647Z,33.40
2019-01-16T17:29:05.452Z,33.40
2019-01-16T17:31:43.655Z,33.50
2019-01-16T17:34:40.943Z,33.50
2019-01-16T17:37:27.988Z,33.50
2019-01-16T17:40:14.692Z,32.60
2019-01-16T17:43:05.681Z,32.80
2019-01-16T17:46:08.772Z,32.80
2019-01-16T17:48:59.660Z,33.00
2019-01-16T17:51:50.632Z,32.50
2019-01-16T17:54:37.318Z,32.30
2019-01-16T17:57:21.288Z,32.00
2019-01-16T18:00:15.204Z,32.10
2019-01-16T18:03:21.656Z,32.40
2019-01-16T18:05:58.919Z,32.90
2019-01-16T18:08:40.712Z,33.40
2019-01-16T18:11:31.524Z,33.20
2019-01-16T18:14:37.980Z,33.00
2019-01-16T18:17:26.084Z,32.90
2019-01-16T18:20:07.529Z,32.60
2019-01-16T18:23:10.488Z,33.10
2019-01-16T18:26:04.471Z,32.10
2019-01-16T18:28:42.679Z,32.70
2019-01-16T18:31:21.837Z,32.20
2019-01-16T18:34:21.311Z,32.80
2019-01-16T18:37:00.468Z,33.00
2019-01-16T18:39:47.212Z,33.20
2019-01-16T18:42:34.265Z,33.30
2019-01-16T18:45:25.392Z,33.20
2019-01-16T18:48:25.981Z,33.10
2019-01-16T18:51:13.953Z,33.60
2019-01-16T18:54:14.372Z,33.30
2019-01-16T18:57:08.368Z,33.10
2019-01-16T18:59:56.352Z,33.10
2019-01-16T19:02:46.501Z,32.50
2019-01-16T19:05:32.313Z,32.10
2019-01-16T19:08:33.371Z,32.00
2019-01-16T19:11:36.500Z,31.70
2019-01-16T19:14:30.273Z,31.60
2019-01-16T19:17:17.633Z,31.50
2019-01-16T19:20:11.708Z,31.30
2019-01-16T19:22:59.725Z,31.00
2019-01-16T19:25:46.712Z,32.40
2019-01-16T19:28:30.588Z,31.70
2019-01-16T19:31:18.144Z,31.50
2019-01-16T19:33:53.576Z,31.30
2019-01-16T19:36:40.164Z,31.40
2019-01-16T19:39:36.703Z,31.50
2019-01-16T19:42:33.743Z,31.00
2019-01-16T19:45:20.211Z,30.00
2019-01-16T19:48:23.022Z,30.10
2019-01-16T19:51:20.000Z,29.00
2019-01-16T19:54:14.016Z,27.80
2019-01-16T19:57:01.064Z,26.70
2019-01-16T19:59:50.669Z,25.70
2019-01-16T20:02:37.522Z,24.90
2019-01-16T20:05:26.100Z,24.20
2019-01-16T20:08:26.491Z,23.30
2019-01-16T20:11:14.696Z,22.60
2019-01-16T20:14:04.773Z,21.90
2019-01-16T20:16:46.036Z,21.40
2019-01-16T20:19:46.308Z,21.00
2019-01-16T20:22:31.576Z,21.10
2019-01-16T20:25:11.317Z,20.50
2019-01-16T20:28:07.916Z,20.40
2019-01-16T20:31:05.536Z,20.60
2019-01-16T20:33:45.128Z,20.40
2019-01-16T20:36:36.552Z,19.60
2019-01-16T20:39:21.928Z,19.60
2019-01-16T20:42:02.891Z,19.60
2019-01-16T20:44:53.852Z,19.70
2019-01-16T20:47:36.034Z,19.00
2019-01-16T20:50:30.876Z,19.20
2019-01-16T20:53:19.032Z,19.60
2019-01-16T20:56:06.283Z,19.70
2019-01-16T20:58:54.560Z,19.80
2019-01-16T21:01:48.536Z,19.70
2019-01-16T21:04:35.260Z,19.70
2019-01-16T21:07:22.096Z,19.70
2019-01-16T21:10:15.604Z,19.90
2019-01-16T21:13:02.621Z,20.40
2019-01-16T21:15:57.368Z,20.20
2019-01-16T21:18:44.264Z,20.50
2019-01-16T21:21:32.317Z,20.60
2019-01-16T21:24:09.728Z,21.00
2019-01-16T21:26:48.036Z,20.70
2019-01-16T21:29:34.625Z,20.80
2019-01-16T21:32:21.832Z,21.00
2019-01-16T21:35:08.659Z,21.20
2019-01-16T21:38:04.104Z,21.50
2019-01-16T21:41:02.349Z,21.70
2019-01-16T21:43:46.219Z,22.00
2019-01-16T21:46:32.820Z,22.00
2019-01-16T21:49:13.675Z,22.10
2019-01-16T21:52:13.936Z,22.40
2019-01-16T21:54:51.596Z,22.20
2019-01-16T21:57:30.435Z,22.30
2019-01-16T22:00:27.152Z,22.40
2019-01-16T22:03:15.192Z,23.20
2019-01-16T22:06:03.460Z,22.90
2019-01-16T22:08:50.204Z,23.10
2019-01-16T22:11:50.548Z,23.60
2019-01-16T22:14:34.345Z,23.20
2019-01-16T22:17:22.371Z,23.50
2019-01-16T22:20:22.496Z,23.60
2019-01-16T22:23:02.127Z,23.30
2019-01-16T22:25:57.779Z,23.10
2019-01-16T22:28:44.333Z,23.30
2019-01-16T22:31:20.824Z,23.30
2019-01-16T22:34:07.648Z,23.30
2019-01-16T22:37:01.964Z,23.40
2019-01-16T22:39:43.688Z,23.40
2019-01-16T22:42:40.996Z,23.50
2019-01-16T22:45:23.691Z,23.60
2019-01-16T22:48:13.188Z,23.70
2019-01-16T22:51:10.112Z,23.50
2019-01-16T22:53:58.095Z,23.30
2019-01-16T22:56:46.148Z,23.30
2019-01-16T22:59:43.128Z,23.70
2019-01-16T23:02:27.460Z,23.80
2019-01-16T23:05:16.243Z,23.80
2019-01-16T23:08:10.316Z,23.70
2019-01-16T23:10:53.239Z,24.30
2019-01-16T23:13:37.460Z,23.70
2019-01-16T23:16:22.539Z,24.00
2019-01-16T23:19:12.720Z,24.00
2019-01-16T23:22:03.896Z,24.20
2019-01-16T23:24:46.031Z,24.00
2019-01-16T23:27:36.883Z,23.70
2019-01-16T23:30:31.951Z,23.80
2019-01-16T23:33:29.282Z,23.60
2019-01-16T23:36:17.332Z,23.40
2019-01-16T23:39:05.376Z,23.40
2019-01-16T23:41:43.700Z,22.60
2019-01-16T23:44:34.532Z,22.80
2019-01-16T23:47:37.504Z,22.80
2019-01-16T23:50:32.284Z,23.10
2019-01-16T23:53:35.508Z,23.10
2019-01-16T23:56:26.604Z,23.30
2019-01-16T23:59:14.572Z,23.30
